Time;durP1;ratioP1;P1;durP2;ratioP2;P2;SDS_P1;SDS_P2;PMS_P1;PMS_P2;Temp;Humidity;BMP_temperature;BMP_pressure;BME280_temperature;BME280_humidity;BME280_pressure;Samples;Min_cycle;Max_cycle;Signal;HPM_P1;HPM_P2
2023/06/03 00:01:11;;;;;;;;;20.50;18.00;;;;;17.00;89.50;99028.44;5096672;27;45324;-62
2023/06/03 00:03:39;;;;;;;;;22.00;20.50;;;;;17.01;89.38;99030.16;5097015;27;45370;-62
2023/06/03 00:06:05;;;;;;;;;23.25;21.75;;;;;17.01;88.77;99022.16;5096622;27;45426;-62
2023/06/03 00:08:30;;;;;;;;;22.75;19.75;;;;;17.02;88.88;99021.22;5096845;27;46424;-62
2023/06/03 00:10:56;;;;;;;;;22.50;21.25;;;;;17.00;89.51;99026.63;5096522;27;45408;-62
2023/06/03 00:13:22;;;;;;;;;23.25;18.50;;;;;16.99;89.35;99019.59;5096808;27;45381;-62
2023/06/03 00:15:47;;;;;;;;;20.25;19.00;;;;;17.00;89.34;99023.13;5096276;27;45387;-62
2023/06/03 00:18:13;;;;;;;;;20.50;20.00;;;;;17.01;89.71;99020.34;5095753;27;45438;-62
2023/06/03 00:20:39;;;;;;;;;21.50;17.25;;;;;17.01;88.62;99017.69;5096171;27;45374;-62
2023/06/03 00:23:05;;;;;;;;;13.75;13.00;;;;;17.03;88.45;99020.25;5098999;27;45372;-62
2023/06/03 00:25:32;;;;;;;;;11.25;9.25;;;;;17.03;87.57;99015.78;5104637;27;45609;-62
2023/06/03 00:27:57;;;;;;;;;9.40;9.40;;;;;17.04;86.67;99021.97;5114152;27;45451;-62
2023/06/03 00:30:23;;;;;;;;;18.25;17.00;;;;;17.04;86.70;99020.16;5113344;27;45429;-62
2023/06/03 00:32:48;;;;;;;;;11.00;11.00;;;;;17.03;86.22;99013.13;5104038;27;45570;-62
2023/06/03 00:35:14;;;;;;;;;13.25;13.25;;;;;17.02;86.27;99014.06;5113336;27;45352;-61
2023/06/03 00:37:39;;;;;;;;;12.50;11.25;;;;;17.00;85.91;99009.81;5096593;27;46067;-61
2023/06/03 00:40:06;;;;;;;;;10.75;10.50;;;;;16.97;85.24;99016.19;5096019;27;45541;-62
2023/06/03 00:42:32;;;;;;;;;10.00;10.00;;;;;16.96;84.42;99022.47;5096229;27;45574;-62
2023/06/03 00:44:57;;;;;;;;;8.00;7.50;;;;;16.93;83.97;99014.69;5096126;27;45378;-62
2023/06/03 00:47:22;;;;;;;;;9.00;7.75;;;;;16.91;83.30;99013.97;5114245;27;47901;-62
2023/06/03 00:49:48;;;;;;;;;7.50;6.75;;;;;16.89;83.44;99007.88;5115297;27;45370;-62
2023/06/03 00:52:15;;;;;;;;;8.50;8.50;;;;;16.89;83.05;99001.69;5108023;27;45417;-62
2023/06/03 00:54:41;;;;;;;;;10.00;7.00;;;;;16.87;82.72;99008.94;5095687;27;45498;-62
2023/06/03 00:57:06;;;;;;;;;8.50;7.00;;;;;16.86;83.17;99013.41;5095567;27;45503;-62
2023/06/03 00:59:32;;;;;;;;;8.50;6.50;;;;;16.84;82.35;99004.66;5095313;27;45396;-62
2023/06/03 01:01:59;;;;;;;;;10.75;9.75;;;;;16.82;82.70;99003.06;5113478;27;45545;-62
2023/06/03 01:04:26;;;;;;;;;9.25;8.25;;;;;16.80;82.07;98999.63;5116437;27;45491;-62
2023/06/03 01:07:05;;;;;;;;;12.00;11.00;;;;;16.76;82.21;98999.00;5096289;27;46189;-62
2023/06/03 01:10:05;;;;;;;;;7.20;7.20;;;;;16.73;82.57;98991.22;5107828;27;45372;-62
2023/06/03 01:12:37;;;;;;;;;9.50;9.25;;;;;16.66;82.92;98995.25;5107694;27;45476;-62
2023/06/03 01:15:08;;;;;;;;;10.00;9.50;;;;;16.62;82.82;98999.03;5109091;27;45376;-62
2023/06/03 01:17:45;;;;;;;;;10.00;8.00;;;;;16.60;82.50;99004.44;5095173;27;45876;-62
2023/06/03 01:20:12;;;;;;;;;9.20;9.00;;;;;16.57;83.24;98995.84;5103555;27;45387;-62
2023/06/03 01:22:44;;;;;;;;;6.00;6.00;;;;;16.55;82.93;98997.75;5100661;27;45442;-62
2023/06/03 01:25:12;;;;;;;;;7.00;6.25;;;;;16.53;82.79;98994.34;5095089;27;45384;-62
2023/06/03 01:27:40;;;;;;;;;9.25;8.75;;;;;16.54;82.85;98990.72;5095030;27;46164;-62
2023/06/03 01:30:14;;;;;;;;;8.00;7.00;;;;;16.53;83.62;98992.53;5095285;27;45370;-62
2023/06/03 01:32:42;;;;;;;;;8.60;8.60;;;;;16.54;82.90;98994.22;5095014;27;45481;-62
2023/06/03 01:35:09;;;;;;;;;7.25;7.00;;;;;16.56;83.44;98996.78;5093778;27;45407;-62
2023/06/03 01:37:35;;;;;;;;;13.75;13.25;;;;;16.55;83.44;99001.25;5094524;27;45496;-62
2023/06/03 01:40:04;;;;;;;;;12.20;10.60;;;;;16.54;83.47;98996.03;5094770;27;45359;-62
2023/06/03 01:42:30;;;;;;;;;7.50;7.50;;;;;16.53;83.52;98994.34;5094933;27;45438;-62
2023/06/03 01:44:57;;;;;;;;;11.00;10.75;;;;;16.50;83.90;98999.84;5095165;27;45503;-62
2023/06/03 01:47:23;;;;;;;;;12.75;10.00;;;;;16.48;84.00;98993.78;5094644;27;45347;-62
2023/06/03 01:49:49;;;;;;;;;9.00;9.00;;;;;16.47;83.57;98998.25;5095414;27;45473;-62
2023/06/03 01:52:14;;;;;;;;;6.25;6.25;;;;;16.45;83.87;98991.31;5114293;27;45584;-62
2023/06/03 01:54:40;;;;;;;;;10.50;9.75;;;;;16.45;84.52;98986.00;5103245;27;45328;-62
2023/06/03 01:57:06;;;;;;;;;8.50;7.00;;;;;16.42;84.96;98985.22;5094892;27;45719;-62
2023/06/03 01:59:31;;;;;;;;;12.00;11.75;;;;;16.41;85.81;98980.03;5095154;27;45450;-62
2023/06/03 02:01:58;;;;;;;;;13.25;13.00;;;;;16.40;86.11;98986.31;5094779;27;45333;-62
2023/06/03 02:04:24;;;;;;;;;18.00;14.25;;;;;16.39;86.54;98987.28;5094490;27;45445;-62
2023/06/03 02:06:51;;;;;;;;;11.25;9.75;;;;;16.39;86.76;98980.13;5094968;27;45453;-62
2023/06/03 02:09:17;;;;;;;;;14.60;11.60;;;;;16.40;86.63;98983.66;5109752;27;45471;-62
2023/06/03 02:11:43;;;;;;;;;13.00;11.50;;;;;16.37;86.36;98989.16;5099356;27;45470;-62
2023/06/03 02:14:12;;;;;;;;;13.25;11.50;;;;;16.34;85.56;98984.91;5098586;27;45354;-62
2023/06/03 02:16:40;;;;;;;;;12.00;11.00;;;;;16.36;86.44;98987.47;5097819;27;45452;-62
2023/06/03 02:19:17;;;;;;;;;12.00;12.00;;;;;16.38;86.49;98990.88;5098356;27;45368;-62
2023/06/03 02:21:43;;;;;;;;;9.50;9.50;;;;;16.38;84.92;98994.41;5098531;27;45466;-62
2023/06/03 02:24:10;;;;;;;;;9.25;9.25;;;;;16.39;84.18;98987.28;5101131;27;45439;-62
2023/06/03 02:26:36;;;;;;;;;11.50;10.50;;;;;16.39;84.20;98990.78;5098030;27;46165;-62
2023/06/03 02:29:08;;;;;;;;;13.80;11.00;;;;;16.41;84.66;98993.34;5098280;27;45423;-62
2023/06/03 02:31:33;;;;;;;;;10.00;9.75;;;;;16.40;84.59;98991.63;5105563;27;45416;-62
2023/06/03 02:33:58;;;;;;;;;10.75;10.75;;;;;16.37;84.04;98994.50;5103045;27;45394;-63
2023/06/03 02:36:24;;;;;;;;;13.50;11.75;;;;;16.34;84.00;98994.69;5098085;27;46279;-63
2023/06/03 02:38:50;;;;;;;;;9.25;8.75;;;;;16.31;84.23;98995.75;5097971;27;45460;-63
2023/06/03 02:41:15;;;;;;;;;8.00;8.00;;;;;16.27;84.20;98986.25;5098135;27;45393;-63
2023/06/03 02:43:41;;;;;;;;;10.00;10.00;;;;;16.26;84.07;98989.84;5098055;27;45360;-63
2023/06/03 02:46:07;;;;;;;;;6.00;6.00;;;;;16.24;83.80;98993.59;5097860;27;46487;-63
2023/06/03 02:48:34;;;;;;;;;9.75;9.50;;;;;16.25;84.41;98993.50;5097844;27;45778;-62
2023/06/03 02:50:59;;;;;;;;;11.20;9.60;;;;;16.25;84.47;98987.31;5098244;27;45519;-63
2023/06/03 02:53:25;;;;;;;;;9.00;9.00;;;;;16.24;83.93;98989.13;5097904;27;45453;-62
2023/06/03 02:55:50;;;;;;;;;10.50;10.50;;;;;16.24;84.83;98989.13;5097833;27;45477;-63
2023/06/03 02:58:16;;;;;;;;;9.50;9.50;;;;;16.23;84.31;98989.22;5097942;27;45471;-62
2023/06/03 03:00:42;;;;;;;;;11.50;10.25;;;;;16.23;84.28;98986.56;5097957;27;45505;-63
2023/06/03 03:03:09;;;;;;;;;10.00;9.75;;;;;16.20;84.89;98984.97;5097214;27;45466;-62
2023/06/03 03:05:35;;;;;;;;;12.00;12.00;;;;;16.19;85.08;98988.56;5097811;27;46184;-63
2023/06/03 03:08:00;;;;;;;;;14.50;12.75;;;;;16.17;86.28;98984.28;5097715;27;45344;-62
2023/06/03 03:10:26;;;;;;;;;8.50;8.00;;;;;16.18;86.46;98986.00;5098347;27;45435;-63
2023/06/03 03:12:51;;;;;;;;;12.00;11.50;;;;;16.17;86.51;98985.16;5097687;27;45416;-62
2023/06/03 03:15:17;;;;;;;;;13.75;13.00;;;;;16.16;86.54;98986.09;5097615;27;46303;-62
2023/06/03 03:17:42;;;;;;;;;13.00;13.00;;;;;16.15;86.94;98980.88;5097289;27;45448;-62
2023/06/03 03:20:08;;;;;;;;;13.50;13.50;;;;;16.16;86.95;98987.91;5097798;27;45463;-62
2023/06/03 03:22:34;;;;;;;;;12.25;12.25;;;;;16.16;86.89;98990.56;5101122;27;45446;-63
2023/06/03 03:25:00;;;;;;;;;14.75;11.00;;;;;16.14;87.17;98987.16;5097115;27;46078;-62
2023/06/03 03:27:25;;;;;;;;;12.00;12.00;;;;;16.12;86.86;98992.56;5097342;27;45392;-63
2023/06/03 03:29:54;;;;;;;;;14.50;12.50;;;;;16.13;87.10;98986.28;5097675;27;45426;-62
2023/06/03 03:32:20;;;;;;;;;11.75;10.00;;;;;16.11;87.11;98987.34;5096926;27;45444;-63
2023/06/03 03:35:05;;;;;;;;;13.00;11.75;;;;;16.10;87.58;98994.47;5097287;27;46191;-62
2023/06/03 03:37:30;;;;;;;;;13.00;12.20;;;;;16.10;87.21;99001.59;5114314;27;52375;-62
2023/06/03 03:39:55;;;;;;;;;13.75;13.75;;;;;16.04;86.13;99002.84;5106250;27;45427;-63
2023/06/03 03:42:21;;;;;;;;;10.25;10.25;;;;;15.96;86.88;98994.50;5109665;27;45436;-62
2023/06/03 03:44:46;;;;;;;;;13.75;11.75;;;;;15.93;86.91;99000.00;5108493;27;45348;-63
2023/06/03 03:47:22;;;;;;;;;10.50;10.50;;;;;15.92;87.27;99001.00;5117094;27;45432;-62
2023/06/03 03:49:47;;;;;;;;;5.50;4.25;;;;;15.92;87.77;99011.63;5117653;27;45392;-62
2023/06/03 03:52:13;;;;;;;;;10.75;10.25;;;;;15.92;87.27;99016.94;5117452;27;45428;-63
2023/06/03 03:54:39;;;;;;;;;13.50;13.50;;;;;15.91;86.91;99013.44;5117753;27;46788;-63
2023/06/03 03:57:12;;;;;;;;;10.25;10.25;;;;;15.89;85.49;99017.13;5117331;27;45429;-62
2023/06/03 03:59:38;;;;;;;;;9.00;8.20;;;;;15.88;86.02;99018.94;5117435;27;45380;-63
2023/06/03 04:02:03;;;;;;;;;12.50;10.25;;;;;15.90;85.63;99018.84;5117072;27;45572;-63
2023/06/03 04:04:35;;;;;;;;;8.00;8.00;;;;;15.92;84.61;99016.94;5117528;27;46662;-63
2023/06/03 04:07:01;;;;;;;;;7.40;7.40;;;;;15.93;84.70;99022.13;5117658;27;45371;-63
2023/06/03 04:09:26;;;;;;;;;8.75;8.75;;;;;15.97;84.36;99025.47;5117682;27;45458;-62
2023/06/03 04:11:52;;;;;;;;;8.25;7.50;;;;;15.99;83.57;99026.22;5117131;27;45313;-63
2023/06/03 04:14:44;;;;;;;;;8.00;7.00;;;;;16.00;83.00;99023.47;5116948;27;46270;-63
2023/06/03 04:17:19;;;;;;;;;7.60;7.20;;;;;16.00;82.96;99025.28;5114695;27;45408;-63
2023/06/03 04:19:47;;;;;;;;;9.40;9.40;;;;;16.01;83.56;99027.84;5116453;27;45297;-63
2023/06/03 04:22:18;;;;;;;;;9.00;8.80;;;;;16.03;83.23;99025.09;5113923;27;45371;-63
2023/06/03 04:24:44;;;;;;;;;8.20;6.80;;;;;16.04;83.39;99026.78;5095686;27;45534;-63
2023/06/03 04:27:10;;;;;;;;;9.50;8.50;;;;;16.04;83.02;99024.13;5096222;27;45405;-63
2023/06/03 04:29:35;;;;;;;;;6.50;6.50;;;;;16.05;83.41;99025.84;5095353;27;45249;-63
2023/06/03 04:32:01;;;;;;;;;9.00;9.00;;;;;16.08;82.55;99022.13;5094094;27;45306;-63
2023/06/03 04:34:27;;;;;;;;;8.50;8.50;;;;;16.10;82.64;99020.22;5096378;27;46383;-63
2023/06/03 04:36:53;;;;;;;;;9.80;7.60;;;;;16.13;82.09;99030.66;5096200;27;45478;-63
2023/06/03 04:39:18;;;;;;;;;8.00;8.00;;;;;16.16;81.91;99038.44;5096682;27;45423;-63
2023/06/03 04:41:44;;;;;;;;;7.75;7.00;;;;;16.17;81.70;99035.69;5096392;27;45365;-63
2023/06/03 04:44:11;;;;;;;;;8.25;8.25;;;;;16.21;81.65;99036.34;5095829;27;47219;-63
2023/06/03 04:46:36;;;;;;;;;8.40;7.20;;;;;16.23;81.60;99037.13;5096169;27;45568;-63
2023/06/03 04:49:03;;;;;;;;;6.50;6.50;;;;;16.25;81.83;99038.72;5096433;27;45376;-63
2023/06/03 04:51:33;;;;;;;;;8.00;8.00;;;;;16.29;81.24;99042.00;5095828;27;45435;-63
2023/06/03 04:53:59;;;;;;;;;11.00;10.60;;;;;16.29;81.03;99042.88;5095863;27;46425;-63
2023/06/03 04:56:28;;;;;;;;;6.00;6.00;;;;;16.32;81.23;99047.13;5096123;27;45557;-62
2023/06/03 04:59:00;;;;;;;;;4.25;4.25;;;;;16.33;80.54;99044.38;5094721;27;45469;-63
2023/06/03 05:01:27;;;;;;;;;7.20;7.20;;;;;16.35;80.39;99038.97;5110574;27;45388;-63
2023/06/03 05:03:54;;;;;;;;;7.80;7.80;;;;;16.39;79.64;99048.47;5116595;27;45440;-63
2023/06/03 05:06:20;;;;;;;;;7.80;7.80;;;;;16.41;79.24;99046.56;5101461;27;45332;-62
2023/06/03 05:08:47;;;;;;;;;7.40;7.40;;;;;16.45;79.40;99056.03;5116763;27;45455;-62
2023/06/03 05:11:15;;;;;;;;;8.75;8.75;;;;;16.46;79.31;99055.06;5116441;27;45352;-63
2023/06/03 05:13:40;;;;;;;;;7.00;7.00;;;;;16.45;79.29;99061.34;5116327;27;45452;-63
2023/06/03 05:16:06;;;;;;;;;11.00;9.50;;;;;16.47;79.34;99054.13;5115986;27;45523;-63
2023/06/03 05:18:31;;;;;;;;;6.00;5.50;;;;;16.48;79.18;99055.84;5116510;27;45435;-63
2023/06/03 05:20:56;;;;;;;;;8.00;8.00;;;;;16.48;78.95;99054.97;5100950;27;45947;-63
2023/06/03 05:23:22;;;;;;;;;6.75;6.75;;;;;16.46;79.23;99049.75;5103398;27;46366;-63
2023/06/03 05:25:47;;;;;;;;;8.25;7.50;;;;;16.46;78.70;99054.22;5095094;27;45536;-63
2023/06/03 05:28:12;;;;;;;;;7.75;7.75;;;;;16.44;79.64;99050.81;5095634;27;45489;-63
2023/06/03 05:30:38;;;;;;;;;5.75;5.75;;;;;16.45;79.07;99044.53;5094712;27;45395;-63
2023/06/03 05:33:03;;;;;;;;;7.50;6.75;;;;;16.46;79.25;99051.56;5094737;27;46363;-63
2023/06/03 05:35:29;;;;;;;;;7.50;7.50;;;;;16.51;78.50;99046.81;5106322;27;45726;-63
2023/06/03 05:37:54;;;;;;;;;8.25;8.25;;;;;16.55;78.60;99049.19;5094999;27;45774;-63
2023/06/03 05:40:19;;;;;;;;;7.25;7.00;;;;;16.61;78.38;99051.41;5094715;27;45366;-63
2023/06/03 05:42:47;;;;;;;;;8.50;8.50;;;;;16.67;78.41;99050.19;5093989;27;46395;-63
2023/06/03 05:45:13;;;;;;;;;7.40;7.40;;;;;16.76;78.93;99054.91;5094785;27;45498;-63
2023/06/03 05:47:39;;;;;;;;;10.75;8.75;;;;;16.88;77.80;99053.25;5100850;27;45433;-63
2023/06/03 05:50:06;;;;;;;;;8.75;8.75;;;;;16.96;77.27;99062.41;5100609;27;45458;-63
2023/06/03 05:52:31;;;;;;;;;8.80;8.40;;;;;17.01;77.01;99059.44;5094287;27;46170;-63
2023/06/03 05:54:57;;;;;;;;;7.25;7.25;;;;;17.05;76.99;99053.81;5094831;27;45395;-63
2023/06/03 05:57:23;;;;;;;;;9.50;9.50;;;;;17.06;77.03;99054.69;5094671;27;45350;-63
2023/06/03 05:59:50;;;;;;;;;0.00;0.00;;;;;17.06;76.83;99062.66;5094063;27;45417;-63
2023/06/03 06:02:18;;;;;;;;;11.50;11.25;;;;;17.06;76.95;99063.53;5093647;27;46357;-63
2023/06/03 06:04:44;;;;;;;;;11.80;9.00;;;;;17.10;77.69;99070.31;5093361;27;45670;-63
2023/06/03 06:07:09;;;;;;;;;9.00;8.50;;;;;17.14;77.27;99067.47;5094220;27;45418;-63
2023/06/03 06:09:35;;;;;;;;;9.75;7.50;;;;;17.16;77.41;99066.41;5094198;27;45431;-62
2023/06/03 06:12:00;;;;;;;;;7.50;7.00;;;;;17.18;77.24;99060.97;5100500;27;47109;-62
2023/06/03 06:14:26;;;;;;;;;11.75;10.25;;;;;17.18;77.18;99060.97;5099188;27;45471;-55
2023/06/03 06:16:52;;;;;;;;;10.75;7.75;;;;;17.22;77.48;99059.81;5093034;27;45415;-55
2023/06/03 06:19:18;;;;;;;;;10.25;10.25;;;;;17.27;77.28;99065.66;5093255;27;45452;-54
2023/06/03 06:21:46;;;;;;;;;11.00;10.50;;;;;17.31;76.55;99061.84;5093545;27;46217;-54
2023/06/03 06:24:11;;;;;;;;;8.60;8.60;;;;;17.34;76.65;99064.31;5096919;27;45462;-54
2023/06/03 06:26:39;;;;;;;;;9.50;7.75;;;;;17.39;76.20;99063.03;5094049;27;45313;-54
2023/06/03 06:29:04;;;;;;;;;9.75;9.25;;;;;17.51;76.17;99069.31;5093608;27;45336;-54
2023/06/03 06:31:30;;;;;;;;;12.50;12.00;;;;;17.66;76.04;99056.75;5093051;27;46269;-55
2023/06/03 06:33:55;;;;;;;;;9.75;9.75;;;;;17.79;75.84;99058.47;5093744;27;45426;-54
2023/06/03 06:36:37;;;;;;;;;12.50;10.25;;;;;17.94;75.64;99061.00;5093601;27;45403;-54
2023/06/03 06:39:05;;;;;;;;;12.00;9.25;;;;;18.01;74.59;99063.13;5107380;27;45700;-54
2023/06/03 06:41:36;;;;;;;;;12.00;11.00;;;;;18.10;74.60;99072.28;5093441;27;47400;-53
2023/06/03 06:44:03;;;;;;;;;12.00;10.40;;;;;18.21;74.48;99074.19;5093425;27;45362;-55
2023/06/03 06:46:35;;;;;;;;;13.80;11.40;;;;;18.33;74.19;99084.81;5093344;27;45450;-56
2023/06/03 06:49:02;;;;;;;;;13.00;10.75;;;;;18.46;74.02;99085.63;5093050;27;45431;-56
2023/06/03 06:51:29;;;;;;;;;10.20;8.40;;;;;18.57;73.77;99086.69;5104698;27;48537;-55
2023/06/03 06:53:59;;;;;;;;;12.40;12.40;;;;;18.66;73.60;99083.38;5095468;27;45507;-56
2023/06/03 06:56:25;;;;;;;;;9.60;9.40;;;;;18.72;73.38;99082.91;5096900;27;45371;-56
2023/06/03 06:58:51;;;;;;;;;13.25;12.75;;;;;18.78;73.46;99080.63;5103611;27;45371;-56
2023/06/03 07:01:16;;;;;;;;;11.00;11.00;;;;;18.86;73.50;99073.88;5116589;27;45746;-59
2023/06/03 07:03:41;;;;;;;;;14.25;14.25;;;;;18.97;73.58;99074.75;5117016;27;45348;-58
2023/06/03 07:06:07;;;;;;;;;11.75;11.50;;;;;19.04;73.40;99067.16;5117062;27;45739;-58
2023/06/03 07:08:32;;;;;;;;;14.25;13.25;;;;;19.16;73.60;99072.41;5116802;27;45503;-57
2023/06/03 07:11:01;;;;;;;;;12.50;12.50;;;;;19.29;73.00;99075.00;5116659;27;45642;-58
2023/06/03 07:13:27;;;;;;;;;13.20;13.20;;;;;19.39;72.52;99073.34;5108396;27;45448;-58
2023/06/03 07:15:52;;;;;;;;;13.50;10.00;;;;;19.51;72.20;99068.88;5109541;27;45471;-58
2023/06/03 07:18:19;;;;;;;;;16.50;13.25;;;;;19.63;72.27;99075.09;5116419;27;45566;-58
2023/06/03 07:20:47;;;;;;;;;13.00;11.80;;;;;19.73;71.32;99066.25;5116309;27;45407;-59
2023/06/03 07:23:26;;;;;;;;;11.00;10.40;;;;;19.82;70.71;99067.34;5105533;27;46695;-59
2023/06/03 07:25:53;;;;;;;;;11.00;10.60;;;;;19.83;70.25;99071.72;5095401;27;45387;-58
2023/06/03 07:28:25;;;;;;;;;14.50;11.25;;;;;19.88;70.56;99071.38;5095460;27;45402;-58
2023/06/03 07:30:52;;;;;;;;;12.20;10.40;;;;;19.93;70.05;99069.19;5111380;27;45640;-58
2023/06/03 07:33:30;;;;;;;;;11.60;11.60;;;;;19.97;70.06;99071.47;5104984;27;45355;-58
2023/06/03 07:36:01;;;;;;;;;12.00;11.60;;;;;20.01;69.85;99070.25;5095401;27;45542;-59
2023/06/03 07:38:38;;;;;;;;;10.60;10.60;;;;;20.07;69.36;99066.25;5095228;27;45442;-59
2023/06/03 07:41:22;;;;;;;;;13.00;13.00;;;;;20.13;69.29;99069.28;5095356;27;45473;-59
2023/06/03 07:43:47;;;;;;;;;11.00;10.40;;;;;20.19;68.11;99071.47;5095368;27;45402;-59
2023/06/03 07:46:13;;;;;;;;;12.25;12.25;;;;;20.21;68.39;99069.53;5095850;27;45750;-59
2023/06/03 07:48:39;;;;;;;;;13.25;10.25;;;;;20.28;68.66;99069.00;5095925;27;45547;-58
2023/06/03 07:51:06;;;;;;;;;12.00;11.50;;;;;20.34;67.78;99069.38;5095714;27;45445;-55
2023/06/03 07:53:35;;;;;;;;;14.20;12.20;;;;;20.38;68.10;99056.63;5095450;27;45363;-59
2023/06/03 07:56:09;;;;;;;;;14.25;14.00;;;;;20.45;67.88;99055.13;5088739;27;45344;-59
2023/06/03 07:58:36;;;;;;;;;10.00;10.00;;;;;20.47;67.16;99047.84;5110137;27;45525;-59
2023/06/03 08:01:03;;;;;;;;;13.00;13.00;;;;;20.46;67.06;99048.81;5115015;27;45628;-59
2023/06/03 08:03:30;;;;;;;;;13.40;13.40;;;;;20.40;67.14;99043.97;5098421;27;45348;-57
2023/06/03 08:05:56;;;;;;;;;9.80;9.20;;;;;20.36;67.26;99039.81;5098172;27;45300;-58
2023/06/03 08:08:28;;;;;;;;;12.50;9.50;;;;;20.34;66.33;99045.28;5094372;27;45305;-58
2023/06/03 08:10:54;;;;;;;;;15.50;14.00;;;;;20.31;67.16;99045.53;5105598;27;45404;-58
2023/06/03 08:13:19;;;;;;;;;13.75;13.00;;;;;20.30;67.76;99046.50;5114064;27;45366;-59
2023/06/03 08:15:46;;;;;;;;;14.75;14.25;;;;;20.32;68.20;99041.03;5115074;27;45324;-59
2023/06/03 08:18:33;;;;;;;;;14.60;13.40;;;;;20.36;67.73;99040.69;5114648;27;45447;-59
2023/06/03 08:21:02;;;;;;;;;14.40;11.80;;;;;20.42;68.14;99039.34;5115152;27;45452;-59
2023/06/03 08:23:27;;;;;;;;;17.40;14.40;;;;;20.43;67.66;99041.06;5102450;27;45530;-59
2023/06/03 08:25:53;;;;;;;;;13.00;12.50;;;;;20.47;67.59;99045.16;5094476;27;45410;-59
2023/06/03 08:28:18;;;;;;;;;12.00;11.25;;;;;20.54;67.40;99038.34;5095250;27;45590;-59
2023/06/03 08:30:43;;;;;;;;;15.75;13.00;;;;;20.59;67.82;99041.50;5094450;27;45998;-59
2023/06/03 08:33:09;;;;;;;;;12.25;11.00;;;;;20.67;67.83;99038.16;5094704;27;45388;-59
2023/06/03 08:35:34;;;;;;;;;17.75;15.75;;;;;20.71;68.09;99035.13;5095098;27;45325;-59
2023/06/03 08:38:00;;;;;;;;;13.00;12.25;;;;;20.77;67.28;99039.13;5094749;27;45418;-65
2023/06/03 08:40:26;;;;;;;;;13.50;12.00;;;;;20.82;67.04;99028.84;5096211;27;46585;-66
2023/06/03 08:43:01;;;;;;;;;15.40;13.20;;;;;20.86;67.19;99032.97;5115630;27;45457;-65
2023/06/03 08:45:35;;;;;;;;;11.80;11.80;;;;;20.86;67.21;99022.25;5112948;27;45416;-64
2023/06/03 08:48:16;;;;;;;;;15.25;13.50;;;;;20.88;66.73;99029.19;5115268;27;45372;-65
2023/06/03 08:50:49;;;;;;;;;9.80;9.80;;;;;20.89;65.97;99032.72;5093520;27;48262;-65
2023/06/03 08:53:14;;;;;;;;;17.40;14.00;;;;;20.90;66.58;99031.75;5108882;27;45554;-65
2023/06/03 08:55:40;;;;;;;;;13.00;13.00;;;;;20.89;66.11;99032.72;5115210;27;45510;-65
2023/06/03 08:58:15;;;;;;;;;14.25;13.00;;;;;20.89;65.71;99027.38;5115358;27;45520;-64
2023/06/03 09:00:43;;;;;;;;;7.20;6.80;;;;;20.90;64.16;99029.94;5114888;27;46409;-65
2023/06/03 09:03:11;;;;;;;;;10.00;9.40;;;;;20.95;63.82;99028.69;5115047;27;45515;-65
2023/06/03 09:05:37;;;;;;;;;8.00;7.00;;;;;21.02;64.04;99027.19;5115303;27;45358;-64
2023/06/03 09:08:05;;;;;;;;;12.00;10.50;;;;;21.08;63.77;99026.69;5115642;27;45336;-65
2023/06/03 09:10:32;;;;;;;;;9.40;7.60;;;;;21.09;62.98;99015.81;5115488;27;45595;-64
2023/06/03 09:13:02;;;;;;;;;11.00;10.00;;;;;21.12;62.82;99020.03;5115405;27;45513;-65
2023/06/03 09:15:29;;;;;;;;;10.00;10.00;;;;;21.19;63.07;99011.41;5114941;27;45403;-64
2023/06/03 09:17:55;;;;;;;;;10.80;10.60;;;;;21.23;62.47;99012.00;5112086;27;45409;-65
2023/06/03 09:20:20;;;;;;;;;7.75;5.75;;;;;21.26;62.50;99014.41;5094365;27;46258;-64
2023/06/03 09:22:48;;;;;;;;;8.75;8.75;;;;;21.24;62.07;99013.69;5097921;27;45447;-65
2023/06/03 09:25:14;;;;;;;;;12.60;11.60;;;;;21.27;62.42;99016.13;5094201;27;45333;-64
2023/06/03 09:27:40;;;;;;;;;8.50;8.50;;;;;21.29;61.40;99018.63;5094124;27;45462;-64
2023/06/03 09:30:06;;;;;;;;;12.20;10.20;;;;;21.31;60.88;99011.31;5094112;27;45434;-64
2023/06/03 09:32:36;;;;;;;;;6.40;6.40;;;;;21.34;62.05;99013.75;5093765;27;45359;-65
2023/06/03 09:35:06;;;;;;;;;9.60;9.40;;;;;21.36;61.65;99011.78;5094346;27;45349;-66
2023/06/03 09:37:32;;;;;;;;;10.00;9.00;;;;;21.38;61.16;99008.00;5093879;27;45514;-65
2023/06/03 09:39:58;;;;;;;;;9.80;8.80;;;;;21.43;61.22;99003.09;5094505;27;46529;-65
2023/06/03 09:42:39;;;;;;;;;10.25;9.00;;;;;21.48;60.69;98998.16;5093897;27;45729;-64
2023/06/03 09:45:06;;;;;;;;;9.60;9.60;;;;;21.54;61.50;98996.78;5093900;27;45432;-64
2023/06/03 09:47:35;;;;;;;;;8.00;7.25;;;;;21.64;60.18;98996.81;5093555;27;45571;-67
2023/06/03 09:50:04;;;;;;;;;7.60;7.40;;;;;21.66;60.05;98994.84;5094109;27;45485;-65
2023/06/03 09:52:35;;;;;;;;;10.60;9.00;;;;;21.74;60.91;98993.22;5100634;27;45433;-64
2023/06/03 09:55:08;;;;;;;;;9.60;9.00;;;;;21.86;60.75;98994.81;5099329;27;45432;-64
2023/06/03 09:57:37;;;;;;;;;7.80;6.80;;;;;21.97;59.22;98998.34;5093896;27;45482;-65
2023/06/03 10:00:12;;;;;;;;;3.00;3.00;;;;;22.04;58.47;98988.81;5094097;27;45431;-65
2023/06/03 10:02:39;;;;;;;;;7.80;7.60;;;;;22.09;58.97;98987.44;5099289;27;45520;-64
2023/06/03 10:05:28;;;;;;;;;7.00;7.00;;;;;22.15;59.57;98981.50;5094614;27;45346;-65
2023/06/03 10:07:53;;;;;;;;;7.60;7.40;;;;;22.21;58.02;98982.78;5107938;27;45350;-65
2023/06/03 10:10:20;;;;;;;;;9.00;8.25;;;;;22.25;58.83;98985.06;5114777;27;46371;-65
2023/06/03 10:12:46;;;;;;;;;9.00;9.00;;;;;22.30;58.66;98987.31;5112902;27;45386;-65
2023/06/03 10:15:12;;;;;;;;;12.00;10.00;;;;;22.38;58.87;98989.31;5093207;27;45396;-64
2023/06/03 10:17:47;;;;;;;;;12.75;10.50;;;;;22.47;58.68;98980.41;5105017;27;45496;-65
2023/06/03 10:20:33;;;;;;;;;11.40;11.40;;;;;22.59;58.80;98982.84;5093156;27;45557;-65
2023/06/03 10:23:01;;;;;;;;;10.40;9.00;;;;;22.68;58.43;98978.44;5095977;27;45460;-64
2023/06/03 10:25:30;;;;;;;;;12.20;11.00;;;;;22.71;56.10;98972.78;5101678;27;45407;-64
2023/06/03 10:27:57;;;;;;;;;9.80;9.80;;;;;22.74;57.90;98979.72;5093571;27;45454;-65
2023/06/03 10:30:25;;;;;;;;;11.40;9.20;;;;;22.84;57.45;98976.06;5097126;27;46304;-64
2023/06/03 10:32:52;;;;;;;;;10.20;9.20;;;;;22.98;57.71;98970.25;5113393;27;45403;-64
2023/06/03 10:35:20;;;;;;;;;10.20;10.20;;;;;23.11;57.68;98971.81;5096046;27;45439;-64
2023/06/03 10:37:47;;;;;;;;;6.60;5.80;;;;;23.23;57.31;98965.25;5097042;27;45509;-65
2023/06/03 10:40:13;;;;;;;;;8.40;7.80;;;;;23.30;55.18;98956.44;5096655;27;45725;-65
2023/06/03 10:42:40;;;;;;;;;9.40;9.00;;;;;23.40;55.62;98952.91;5097311;27;45416;-68
2023/06/03 10:45:06;;;;;;;;;6.60;6.60;;;;;23.53;54.66;98948.91;5096709;27;45518;-65
2023/06/03 10:47:36;;;;;;;;;6.60;6.60;;;;;23.62;53.45;98952.56;5096370;27;45370;-64
2023/06/03 10:50:19;;;;;;;;;6.00;6.00;;;;;23.72;53.04;98952.53;5096665;27;46292;-64
2023/06/03 10:52:50;;;;;;;;;7.00;7.00;;;;;23.74;53.93;98954.06;5105458;27;46005;-64
2023/06/03 10:55:25;;;;;;;;;7.20;6.20;;;;;23.70;54.39;98952.66;5116372;27;45452;-65
2023/06/03 10:58:00;;;;;;;;;9.00;8.40;;;;;23.68;53.62;98951.97;5105882;27;45369;-65
2023/06/03 11:00:53;;;;;;;;;9.00;8.60;;;;;23.70;54.56;98949.13;5103084;27;45532;-64
2023/06/03 11:03:22;;;;;;;;;9.60;9.40;;;;;23.75;54.56;98944.16;5117659;27;45358;-65
2023/06/03 11:05:49;;;;;;;;;6.60;6.60;;;;;23.84;54.85;98952.16;5105410;27;45499;-64
2023/06/03 11:08:53;;;;;;;;;8.75;8.75;;;;;23.96;55.01;98940.19;5110283;27;45439;-65
2023/06/03 11:11:38;;;;;;;;;9.40;7.60;;;;;24.12;53.14;98944.09;5096008;27;46262;-64
2023/06/03 11:14:03;;;;;;;;;9.60;7.60;;;;;24.15;53.80;98946.47;5096766;27;45490;-65
2023/06/03 11:16:29;;;;;;;;;8.75;8.25;;;;;24.23;54.14;98936.66;5096664;27;45383;-65
2023/06/03 11:19:33;;;;;;;;;7.75;7.75;;;;;24.38;53.47;98928.06;5096586;27;45445;-64
2023/06/03 11:21:59;;;;;;;;;9.40;7.40;;;;;24.52;53.35;98931.06;5096774;27;45565;-64
2023/06/03 11:24:37;;;;;;;;;5.20;5.20;;;;;24.68;52.43;98930.34;5099679;27;45451;-64
2023/06/03 11:27:19;;;;;;;;;7.00;7.00;;;;;24.79;50.62;98937.38;5096673;27;45392;-65
2023/06/03 11:29:51;;;;;;;;;5.20;5.00;;;;;24.82;49.82;98928.94;5096487;27;45423;-64